Time;durP1;ratioP1;P1;durP2;ratioP2;P2;SDS_P1;SDS_P2;PMS_P1;PMS_P2;Temp;Humidity;BMP_temperature;BMP_pressure;BME280_temperature;BME280_humidity;BME280_pressure;Samples;Min_cycle;Max_cycle;Signal;HPM_P1;HPM_P2
2022/09/02 00:04:30;;;;;;;4.50;1.20;;;;;;;16.29;50.02;99456.63;238837;1191;139368;-57
2022/09/02 00:09:33;;;;;;;3.60;1.20;;;;;;;16.27;50.03;99455.00;238765;1190;139402;-58
2022/09/02 00:14:38;;;;;;;4.40;1.10;;;;;;;16.20;50.10;99458.59;238804;1190;140428;-57
2022/09/02 00:19:41;;;;;;;2.60;0.90;;;;;;;16.07;50.09;99466.41;238565;1191;140107;-57
2022/09/02 00:24:44;;;;;;;2.00;1.10;;;;;;;15.95;50.30;99466.16;238750;1192;140045;-59
2022/09/02 00:29:47;;;;;;;3.50;1.20;;;;;;;15.84;50.55;99466.80;238810;1191;139011;-58
2022/09/02 00:34:50;;;;;;;2.30;1.10;;;;;;;15.74;50.91;99461.14;238669;1191;139169;-58
2022/09/02 00:39:53;;;;;;;3.80;1.60;;;;;;;15.65;51.11;99463.95;238755;1192;140244;-59
2022/09/02 00:44:57;;;;;;;2.20;1.40;;;;;;;15.56;51.38;99459.92;238815;1190;139253;-61
2022/09/02 00:50:02;;;;;;;3.90;1.40;;;;;;;15.49;51.33;99453.02;238717;1191;139541;-62
2022/09/02 00:55:12;;;;;;;3.60;1.40;;;;;;;15.40;51.88;99452.03;238769;1191;139769;-60
2022/09/02 01:00:22;;;;;;;7.40;1.50;;;;;;;15.33;52.02;99450.02;238964;1190;140243;-59
2022/09/02 01:05:29;;;;;;;4.50;1.60;;;;;;;15.28;52.17;99451.31;238870;1190;139979;-60
2022/09/02 01:10:33;;;;;;;5.40;1.50;;;;;;;15.24;52.38;99457.39;238533;1191;140260;-59
2022/09/02 01:15:42;;;;;;;4.50;1.50;;;;;;;15.18;52.65;99450.48;238688;1192;139842;-58
2022/09/02 01:20:46;;;;;;;4.70;1.50;;;;;;;15.15;52.83;99453.42;238864;1191;139829;-59
2022/09/02 01:25:49;;;;;;;2.80;1.10;;;;;;;15.09;53.03;99450.41;238522;1192;139582;-56
2022/09/02 01:30:53;;;;;;;3.80;1.20;;;;;;;15.06;53.14;99451.17;238779;1192;140318;-56
2022/09/02 01:35:56;;;;;;;5.90;1.50;;;;;;;15.03;53.31;99452.86;238568;1191;139475;-58
2022/09/02 01:41:00;;;;;;;3.40;1.40;;;;;;;14.96;53.42;99458.88;238762;1191;139301;-60
2022/09/02 01:46:04;;;;;;;3.70;1.30;;;;;;;14.89;53.59;99460.29;238778;1191;139959;-58
2022/09/02 01:51:07;;;;;;;3.40;1.40;;;;;;;14.82;53.75;99465.77;238840;1190;138736;-57
2022/09/02 01:56:10;;;;;;;4.40;1.60;;;;;;;14.78;53.77;99463.63;238801;1192;139239;-59
2022/09/02 02:01:13;;;;;;;4.40;1.50;;;;;;;14.75;54.16;99462.06;238571;1192;139160;-59
2022/09/02 02:06:16;;;;;;;5.20;1.50;;;;;;;14.71;54.26;99461.11;238942;1191;139917;-59
2022/09/02 02:11:23;;;;;;;6.20;1.40;;;;;;;14.67;54.45;99456.36;238791;1190;139224;-58
2022/09/02 02:16:31;;;;;;;6.70;1.80;;;;;;;14.69;54.46;99459.49;238795;1190;140375;-58
2022/09/02 02:21:34;;;;;;;4.30;1.70;;;;;;;14.73;54.72;99461.30;238797;1190;140328;-58
2022/09/02 02:26:37;;;;;;;4.30;1.50;;;;;;;14.77;54.69;99464.73;238481;1191;141828;-59
2022/09/02 02:31:41;;;;;;;3.10;1.50;;;;;;;14.77;54.85;99455.83;238744;1190;139873;-58
2022/09/02 02:36:45;;;;;;;4.40;1.70;;;;;;;14.78;54.96;99456.65;238967;1190;139326;-59
2022/09/02 02:41:48;;;;;;;4.80;1.70;;;;;;;14.75;54.77;99452.06;238675;1191;140300;-60
2022/09/02 02:46:52;;;;;;;4.90;1.80;;;;;;;14.71;54.88;99445.54;238507;1192;139142;-59
2022/09/02 02:51:57;;;;;;;4.50;1.70;;;;;;;14.67;54.84;99439.20;238603;1192;141365;-59
2022/09/02 02:57:01;;;;;;;4.80;1.50;;;;;;;14.67;54.96;99437.98;238657;1191;245387;-59
2022/09/02 03:02:05;;;;;;;3.70;1.40;;;;;;;14.66;54.99;99434.79;238777;1191;139501;-59
2022/09/02 03:07:08;;;;;;;3.20;1.70;;;;;;;14.67;54.96;99433.14;238763;1190;139737;-57
2022/09/02 03:12:11;;;;;;;4.50;1.70;;;;;;;14.69;55.05;99436.58;238880;1190;139449;-57
2022/09/02 03:17:15;;;;;;;4.10;1.70;;;;;;;14.74;54.84;99437.83;238718;1192;139515;-59
2022/09/02 03:22:18;;;;;;;3.70;1.70;;;;;;;14.75;54.67;99436.36;238841;1190;139628;-57
2022/09/02 03:27:22;;;;;;;3.60;1.40;;;;;;;14.72;54.48;99441.17;238705;1190;138972;-59
2022/09/02 03:32:26;;;;;;;3.10;1.60;;;;;;;14.73;54.59;99441.11;238726;1190;139769;-58
2022/09/02 03:37:34;;;;;;;3.20;1.60;;;;;;;14.71;54.67;99439.45;238737;1190;139647;-58
2022/09/02 03:42:38;;;;;;;3.60;1.30;;;;;;;14.70;54.53;99441.66;238907;1190;139511;-60
2022/09/02 03:47:50;;;;;;;5.50;1.90;;;;;;;14.66;54.52;99441.80;238885;1192;139719;-59
2022/09/02 03:52:53;;;;;;;2.80;1.40;;;;;;;14.61;54.64;99447.50;238637;1191;139152;-60
2022/09/02 03:57:57;;;;;;;6.90;1.60;;;;;;;14.56;54.51;99449.62;238725;1192;140439;-58
2022/09/02 04:03:00;;;;;;;2.80;1.60;;;;;;;14.52;54.59;99451.02;238588;1190;224372;-59
2022/09/02 04:08:04;;;;;;;2.60;1.40;;;;;;;14.46;54.42;99457.64;238671;1190;139486;-58
2022/09/02 04:13:07;;;;;;;4.10;1.50;;;;;;;14.41;54.54;99463.16;238732;1190;139816;-59
2022/09/02 04:18:11;;;;;;;2.20;1.60;;;;;;;14.36;54.63;99468.36;238760;1192;139621;-59
2022/09/02 04:23:14;;;;;;;2.10;1.40;;;;;;;14.33;54.74;99468.95;238857;1190;140296;-59
2022/09/02 04:28:17;;;;;;;2.70;1.40;;;;;;;14.29;54.72;99472.27;238774;1190;139145;-58
2022/09/02 04:33:22;;;;;;;4.50;1.40;;;;;;;14.27;54.80;99479.57;238180;1192;140678;-57
2022/09/02 04:38:25;;;;;;;3.40;1.80;;;;;;;14.26;54.91;99481.20;238564;1191;140239;-58
2022/09/02 04:43:29;;;;;;;4.30;1.90;;;;;;;14.28;55.06;99483.04;238769;1192;140074;-57
2022/09/02 04:48:35;;;;;;;6.80;1.80;;;;;;;14.31;55.05;99480.51;238996;1190;139376;-57
2022/09/02 04:53:41;;;;;;;3.80;1.90;;;;;;;14.35;55.02;99482.56;238404;1192;139618;-57
2022/09/02 04:58:44;;;;;;;;;;;;;;;14.38;55.07;99484.41;238652;1192;140801;-59
2022/09/02 05:03:48;;;;;;;6.60;2.10;;;;;;;14.44;55.46;99489.02;238701;1190;125917;-57
2022/09/02 05:08:53;;;;;;;123.50;102.00;;;;;;;14.74;56.01;99490.89;238721;1190;139655;-57
2022/09/02 05:14:03;;;;;;;12.30;8.00;;;;;;;14.92;55.43;99485.48;238619;1191;140372;-56
2022/09/02 05:19:12;;;;;;;7.80;3.00;;;;;;;14.92;55.09;99480.82;238427;1191;140433;-57
2022/09/02 05:24:22;;;;;;;8.30;2.50;;;;;;;14.89;55.05;99480.66;238794;1190;140484;-56
2022/09/02 05:29:30;;;;;;;14.20;2.50;;;;;;;14.88;55.05;99486.59;238543;1190;139804;-56
2022/09/02 05:34:34;;;;;;;8.40;2.10;;;;;;;14.89;54.92;99482.45;238728;1192;140376;-57
2022/09/02 05:39:38;;;;;;;16.80;2.60;;;;;;;14.92;55.23;99477.59;238503;1191;139466;-58
2022/09/02 05:44:43;;;;;;;21.00;2.90;;;;;;;14.95;55.24;99479.58;238597;1191;140036;-57
2022/09/02 05:49:48;;;;;;;8.90;2.40;;;;;;;14.99;55.19;99478.85;238532;1192;239848;-59
2022/09/02 05:54:52;;;;;;;17.30;12.00;;;;;;;15.07;55.18;99474.86;238895;1190;139493;-58
2022/09/02 05:59:56;;;;;;;5.60;2.50;;;;;;;15.21;55.27;99477.08;238859;1190;139933;-59
2022/09/02 06:05:17;;;;;;;9.10;2.00;;;;;;;15.31;54.85;99479.92;238752;1190;139108;-58
2022/09/02 06:10:24;;;;;;;6.50;1.90;;;;;;;15.35;54.79;99476.73;238787;1192;139566;-59
2022/09/02 06:15:29;;;;;;;3.10;1.80;;;;;;;15.41;54.74;99480.05;238684;1190;139962;-59
2022/09/02 06:20:33;;;;;;;;;;;;;;;15.47;54.77;99474.05;238789;1190;140131;-59
2022/09/02 06:25:38;;;;;;;3.80;2.00;;;;;;;15.55;54.84;99480.60;238675;1191;127539;-58
2022/09/02 06:30:46;;;;;;;4.60;2.00;;;;;;;15.61;54.70;99481.57;238806;1192;142173;-58
2022/09/02 06:35:50;;;;;;;4.80;2.00;;;;;;;15.69;54.64;99479.16;238669;1192;139163;-58
2022/09/02 06:40:55;;;;;;;7.10;1.70;;;;;;;15.78;54.43;99481.92;238549;1192;139484;-57
2022/09/02 06:46:23;;;;;;;7.00;2.50;;;;;;;15.91;55.00;99487.75;238633;1191;139758;-60
2022/09/02 06:51:32;;;;;;;5.70;2.20;;;;;;;16.14;55.23;99488.07;238644;1190;139564;-61
2022/09/02 06:56:37;;;;;;;5.00;2.80;;;;;;;16.36;55.13;99488.37;238619;1192;140084;-61
2022/09/02 07:01:44;;;;;;;7.40;2.40;;;;;;;16.55;54.91;99492.90;238542;1192;139096;-58
2022/09/02 07:06:52;;;;;;;6.90;3.20;;;;;;;16.72;54.98;99486.58;238843;1190;139253;-60
2022/09/02 07:12:01;;;;;;;8.20;2.60;;;;;;;16.91;54.99;99490.22;238845;1190;139258;-60
2022/09/02 07:17:16;;;;;;;4.10;2.10;;;;;;;17.10;55.10;99489.08;238774;1191;139004;-62
2022/09/02 07:22:22;;;;;;;6.20;2.20;;;;;;;17.28;54.73;99485.43;238615;1192;138971;-58
2022/09/02 07:27:26;;;;;;;2.80;2.00;;;;;;;17.39;54.30;99482.00;238552;1190;142014;-58
2022/09/02 07:32:30;;;;;;;3.10;1.60;;;;;;;17.55;54.35;99479.05;238799;1190;139723;-60
2022/09/02 07:37:33;;;;;;;3.90;2.20;;;;;;;17.76;54.35;99483.92;238734;1191;139415;-56
2022/09/02 07:42:39;;;;;;;7.40;1.80;;;;;;;17.99;54.10;99482.30;238914;1191;138974;-58
2022/09/02 07:47:42;;;;;;;111.40;70.70;;;;;;;18.21;53.97;99485.70;238623;1190;139189;-56
2022/09/02 07:52:46;;;;;;;15.00;8.40;;;;;;;18.47;53.78;99483.04;238801;1190;139859;-56
2022/09/02 07:57:50;;;;;;;65.50;56.20;;;;;;;18.67;53.44;99480.17;238382;1192;139864;-57
2022/09/02 08:02:55;;;;;;;22.30;12.20;;;;;;;18.86;52.96;99474.36;238453;1192;141234;-57
2022/09/02 08:08:04;;;;;;;23.80;16.50;;;;;;;18.89;52.45;99472.13;238645;1190;140338;-56
2022/09/02 08:13:07;;;;;;;19.00;14.50;;;;;;;19.01;52.41;99471.95;238767;1190;139905;-57
2022/09/02 08:18:11;;;;;;;8.80;4.90;;;;;;;19.14;52.26;99471.91;238873;1190;140045;-57
2022/09/02 08:23:24;;;;;;;11.30;4.50;;;;;;;19.29;52.01;99468.00;238513;1192;139511;-56
2022/09/02 08:28:39;;;;;;;5.00;3.50;;;;;;;19.36;51.68;99468.25;238582;1190;140565;-56
2022/09/02 08:33:43;;;;;;;122.40;84.80;;;;;;;19.46;51.34;99469.64;238507;1190;140263;-56
2022/09/02 08:38:46;;;;;;;9.60;6.00;;;;;;;19.57;51.11;99464.55;238469;1192;141111;-57
2022/09/02 08:43:56;;;;;;;10.50;3.40;;;;;;;19.80;51.37;99460.59;238579;1192;140485;-57
2022/09/02 08:49:28;;;;;;;4.70;2.40;;;;;;;20.08;50.91;99456.67;238820;1190;139061;-58
2022/09/02 08:54:34;;;;;;;7.80;1.60;;;;;;;20.30;50.35;99457.46;238696;1190;139575;-57
2022/09/02 08:59:37;;;;;;;144.60;105.70;;;;;;;20.41;49.84;99447.41;238674;1192;138973;-56
2022/09/02 09:05:18;;;;;;;20.00;13.60;;;;;;;20.55;49.58;99444.31;238741;1191;142438;-57
2022/09/02 09:10:28;;;;;;;;;;;;;;;20.72;49.14;99435.05;238596;1192;139483;-57
2022/09/02 09:15:43;;;;;;;6.30;4.60;;;;;;;20.86;48.59;99439.96;238588;1192;125569;-56
2022/09/02 09:20:47;;;;;;;6.90;3.70;;;;;;;20.95;48.28;99436.54;238360;1190;139341;-56
2022/09/02 09:25:55;;;;;;;6.20;2.90;;;;;;;21.07;47.83;99433.82;238821;1190;139106;-57
2022/09/02 09:31:00;;;;;;;4.50;1.90;;;;;;;21.13;47.41;99430.42;238493;1192;140168;-56
2022/09/02 09:36:04;;;;;;;5.60;2.20;;;;;;;21.23;47.12;99421.51;238408;1192;140220;-57
2022/09/02 09:41:20;;;;;;;6.10;1.40;;;;;;;21.38;46.88;99422.38;238674;1190;139257;-57
2022/09/02 09:46:29;;;;;;;9.50;1.90;;;;;;;21.52;46.50;99419.33;238768;1190;139256;-59
2022/09/02 09:51:32;;;;;;;7.30;1.60;;;;;;;21.64;45.87;99414.13;238666;1191;139285;-58
2022/09/02 09:56:53;;;;;;;51.00;28.40;;;;;;;21.73;45.50;99412.16;238599;1191;139777;-57
2022/09/02 10:01:56;;;;;;;5.50;2.80;;;;;;;21.75;44.98;99407.46;238772;1190;139058;-57
2022/09/02 10:06:59;;;;;;;4.40;1.40;;;;;;;21.75;44.86;99401.27;238776;1191;140548;-57
2022/09/02 10:12:05;;;;;;;2.90;1.00;;;;;;;21.89;44.84;99396.09;238486;1192;140094;-60
2022/09/02 10:17:33;;;;;;;3.80;1.40;;;;;;;22.09;44.49;99396.45;238296;1191;139707;-58
2022/09/02 10:22:51;;;;;;;3.80;0.90;;;;;;;22.27;43.52;99394.96;238664;1192;139426;-57
2022/09/02 10:28:16;;;;;;;75.90;56.80;;;;;;;22.36;42.88;99388.58;238776;1190;139378;-57
2022/09/02 10:33:26;;;;;;;6.80;2.90;;;;;;;22.46;42.64;99386.19;238666;1192;139972;-58
2022/09/02 10:38:36;;;;;;;2.20;1.00;;;;;;;22.59;42.53;99380.54;238451;1191;140941;-58
2022/09/02 10:44:08;;;;;;;2.50;0.90;;;;;;;22.62;42.01;99378.23;238042;1192;139433;-57
2022/09/02 10:49:46;;;;;;;2.40;0.80;;;;;;;22.53;41.51;99375.47;238126;1190;140039;-57
2022/09/02 10:54:59;;;;;;;48.90;39.60;;;;;;;22.48;41.42;99378.92;238248;1190;140090;-58
2022/09/02 11:00:17;;;;;;;5.60;3.90;;;;;;;22.39;41.21;99372.23;238283;1190;141572;-58
2022/09/02 11:05:26;;;;;;;3.60;1.80;;;;;;;22.41;41.28;99373.61;238220;1191;140984;-56
2022/09/02 11:10:53;;;;;;;4.70;1.40;;;;;;;22.58;41.16;99368.79;238046;1191;139641;-58
2022/09/02 11:16:12;;;;;;;1.70;1.10;;;;;;;22.57;40.75;99371.43;238695;1190;140981;-57
2022/09/02 11:21:33;;;;;;;263.40;197.50;;;;;;;22.47;40.45;99368.52;238764;1190;140007;-57
2022/09/02 11:26:44;;;;;;;11.10;8.10;;;;;;;22.32;40.03;99370.02;238655;1191;140886;-57
2022/09/02 11:32:00;;;;;;;2.50;1.20;;;;;;;22.15;39.58;99370.79;238681;1190;140184;-57
2022/09/02 11:37:07;;;;;;;3.60;1.10;;;;;;;22.10;39.73;99367.11;238888;1190;142503;-58
2022/09/02 11:42:18;;;;;;;0.60;0.50;;;;;;;22.09;39.45;99358.52;238669;1191;140660;-57
2022/09/02 11:47:24;;;;;;;3.10;0.70;;;;;;;22.42;39.93;99346.76;238539;1191;139578;-57
2022/09/02 11:52:27;;;;;;;1.90;0.70;;;;;;;22.57;39.39;99339.50;238552;1190;140311;-57
2022/09/02 11:57:31;;;;;;;3.50;1.00;;;;;;;22.44;39.30;99348.33;238758;1190;140582;-57
2022/09/02 12:02:45;;;;;;;6.00;1.00;;;;;;;22.28;39.30;99352.40;238587;1192;139971;-57
2022/09/02 12:07:49;;;;;;;3.20;1.00;;;;;;;22.17;39.34;99352.50;238491;1191;139971;-59
2022/09/02 12:12:51;;;;;;;2.50;0.80;;;;;;;22.06;39.38;99347.68;238674;1191;140188;-59
2022/09/02 12:17:55;;;;;;;3.50;0.80;;;;;;;21.94;39.08;99343.34;238552;1192;139735;-59
2022/09/02 12:23:00;;;;;;;4.80;1.10;;;;;;;21.86;39.27;99342.85;238414;1192;139959;-59
2022/09/02 12:28:24;;;;;;;3.50;1.00;;;;;;;21.86;39.54;99337.09;238655;1191;140474;-58
2022/09/02 12:33:30;;;;;;;5.80;0.80;;;;;;;22.11;39.94;99330.30;238607;1191;139650;-59
2022/09/02 12:38:39;;;;;;;1.90;0.90;;;;;;;22.52;39.78;99320.59;238585;1191;140404;-60
2022/09/02 12:44:13;;;;;;;1.60;0.80;;;;;;;22.63;39.51;99317.70;238558;1192;139757;-59
2022/09/02 12:49:40;;;;;;;55.40;38.50;;;;;;;22.76;39.19;99312.42;238756;1190;140393;-60
2022/09/02 12:54:47;;;;;;;6.10;2.50;;;;;;;22.70;38.78;99302.86;238843;1190;139626;-60
2022/09/02 12:59:58;;;;;;;11.00;1.90;;;;;;;22.65;38.68;99299.67;238717;1190;140837;-59
2022/09/02 13:05:15;;;;;;;2.00;0.90;;;;;;;22.68;38.80;99297.38;238370;1190;140228;-60
2022/09/02 13:10:42;;;;;;;3.10;1.20;;;;;;;22.57;38.70;99297.95;238680;1190;140668;-60
2022/09/02 13:16:09;;;;;;;4.80;1.10;;;;;;;22.42;38.47;99295.04;238398;1191;139912;-60
2022/09/02 13:21:30;;;;;;;3.00;1.20;;;;;;;22.28;38.43;99297.15;238565;1190;140494;-60
2022/09/02 13:27:01;;;;;;;3.60;1.10;;;;;;;22.15;38.37;99300.79;238551;1191;139401;-59
2022/09/02 13:32:21;;;;;;;7.00;1.10;;;;;;;22.07;38.55;99292.45;238649;1190;139375;-59
2022/09/02 13:37:36;;;;;;;5.50;1.10;;;;;;;22.01;38.67;99285.14;238532;1191;140501;-60
2022/09/02 13:43:08;;;;;;;2.80;0.70;;;;;;;22.01;38.86;99285.83;238676;1192;139500;-60
2022/09/02 13:48:21;;;;;;;3.20;0.70;;;;;;;22.05;38.94;99287.06;238712;1190;139301;-60
2022/09/02 13:53:38;;;;;;;2.60;0.90;;;;;;;22.01;39.03;99286.73;238951;1190;139876;-60
2022/09/02 13:59:02;;;;;;;3.30;0.80;;;;;;;21.99;39.04;99279.17;238653;1190;253926;-60
2022/09/02 14:04:10;;;;;;;2.60;0.70;;;;;;;21.99;39.09;99273.80;238924;1190;140160;-60
2022/09/02 14:09:23;;;;;;;4.40;1.10;;;;;;;22.01;39.16;99271.05;238868;1190;140090;-60
2022/09/02 14:14:27;;;;;;;4.80;0.90;;;;;;;22.07;39.31;99266.77;238925;1190;140690;-61
2022/09/02 14:19:29;;;;;;;2.40;0.70;;;;;;;22.15;39.13;99267.16;238901;1190;139963;-60
2022/09/02 14:24:39;;;;;;;5.00;1.00;;;;;;;22.16;39.22;99269.81;239098;1190;139883;-59
2022/09/02 14:29:45;;;;;;;2.90;0.90;;;;;;;22.14;38.81;99270.19;238980;1190;139918;-60
2022/09/02 14:35:08;;;;;;;3.70;0.80;;;;;;;22.12;38.77;99265.70;238728;1190;141313;-60
2022/09/02 14:40:11;;;;;;;3.90;2.20;;;;;;;22.12;38.78;99270.59;238988;1190;142420;-59
2022/09/02 14:45:25;;;;;;;7.20;1.20;;;;;;;22.07;38.78;99269.86;238907;1190;139426;-60
2022/09/02 14:50:31;;;;;;;1.50;0.90;;;;;;;22.05;38.80;99265.02;238653;1190;139525;-60
2022/09/02 14:55:51;;;;;;;2.70;0.90;;;;;;;22.05;38.83;99260.70;238975;1190;238740;-60
2022/09/02 15:00:58;;;;;;;1.60;1.10;;;;;;;22.01;38.60;99256.77;239110;1190;139519;-60
2022/09/02 15:06:01;;;;;;;1.30;0.90;;;;;;;22.02;38.64;99257.43;238803;1190;140312;-61
2022/09/02 15:11:05;;;;;;;0.60;0.60;;;;;;;21.96;38.45;99255.08;238933;1190;139966;-60
2022/09/02 15:16:08;;;;;;;1.10;0.80;;;;;;;21.95;38.52;99253.62;238985;1190;141197;-61
2022/09/02 15:21:11;;;;;;;2.10;1.00;;;;;;;21.92;38.42;99255.53;238926;1190;139191;-60
2022/09/02 15:26:14;;;;;;;2.90;1.60;;;;;;;21.89;38.40;99254.44;238958;1190;140023;-60
2022/09/02 15:31:17;;;;;;;3.90;1.10;;;;;;;21.85;38.33;99253.05;238990;1190;139731;-60
2022/09/02 15:36:20;;;;;;;6.90;2.60;;;;;;;21.81;38.41;99251.31;239042;1190;140121;-59
2022/09/02 15:41:25;;;;;;;4.00;1.60;;;;;;;21.78;38.49;99251.02;238951;1190;139801;-61
2022/09/02 15:46:29;;;;;;;;;;;;;;;21.78;38.47;99252.83;238980;1190;142670;-60
2022/09/02 15:51:33;;;;;;;4.00;1.80;;;;;;;21.75;38.47;99255.20;239016;1189;126729;-60
2022/09/02 15:56:40;;;;;;;52.90;35.30;;;;;;;21.72;38.59;99250.25;238950;1190;139585;-59
2022/09/02 16:01:45;;;;;;;8.80;4.00;;;;;;;21.74;38.66;99247.89;238927;1190;141097;-61
2022/09/02 16:06:53;;;;;;;8.90;4.20;;;;;;;21.73;38.56;99248.69;239007;1190;140043;-60
2022/09/02 16:11:56;;;;;;;7.10;3.50;;;;;;;21.73;38.62;99246.73;238982;1190;139902;-60
2022/09/02 16:16:59;;;;;;;5.60;2.20;;;;;;;21.72;38.72;99246.63;238946;1190;139968;-60
2022/09/02 16:22:03;;;;;;;5.60;2.00;;;;;;;21.71;38.77;99242.92;238867;1190;139726;-61
2022/09/02 16:27:06;;;;;;;3.20;1.20;;;;;;;21.69;38.80;99243.29;238974;1190;139605;-61
2022/09/02 16:32:09;;;;;;;6.10;1.30;;;;;;;21.64;38.76;99240.39;238930;1190;140190;-60
2022/09/02 16:37:29;;;;;;;5.60;1.70;;;;;;;21.58;39.07;99242.67;238981;1189;140540;-60
2022/09/02 16:42:32;;;;;;;3.40;1.10;;;;;;;21.54;39.41;99245.65;239105;1190;140759;-61
2022/09/02 16:47:40;;;;;;;1.90;1.00;;;;;;;21.52;39.45;99247.70;238980;1189;140559;-60
2022/09/02 16:52:42;;;;;;;2.70;1.10;;;;;;;21.50;39.38;99244.95;238967;1190;139640;-60
2022/09/02 16:57:46;;;;;;;1.60;1.10;;;;;;;21.47;39.36;99239.80;238926;1190;140669;-62
2022/09/02 17:02:49;;;;;;;3.20;1.20;;;;;;;21.45;39.17;99240.44;238900;1190;140416;-60
2022/09/02 17:07:54;;;;;;;1.90;0.80;;;;;;;21.40;39.05;99236.65;238936;1190;141270;-60
2022/09/02 17:12:57;;;;;;;4.90;1.10;;;;;;;21.33;39.18;99236.11;239072;1190;142051;-60
2022/09/02 17:18:00;;;;;;;50.00;36.40;;;;;;;21.26;39.02;99240.96;238809;1190;139502;-59
2022/09/02 17:23:03;;;;;;;6.50;2.80;;;;;;;21.17;38.95;99240.05;238940;1190;140081;-59
2022/09/02 17:28:07;;;;;;;4.80;1.60;;;;;;;21.12;39.04;99244.95;238977;1190;140815;-58
2022/09/02 17:33:10;;;;;;;7.60;2.50;;;;;;;21.06;39.11;99243.02;238704;1190;140365;-59
2022/09/02 17:38:13;;;;;;;7.30;2.50;;;;;;;20.99;39.25;99246.41;238921;1190;140622;-60
2022/09/02 17:43:17;;;;;;;93.50;67.60;;;;;;;20.91;39.32;99250.33;238861;1190;140549;-59
2022/09/02 17:48:21;;;;;;;10.70;4.30;;;;;;;20.86;39.60;99250.96;238909;1190;140285;-60
2022/09/02 17:53:44;;;;;;;4.10;2.30;;;;;;;20.81;39.52;99251.86;238955;1190;139590;-59
2022/09/02 17:59:01;;;;;;;6.70;3.20;;;;;;;20.76;39.67;99248.70;238928;1190;139627;-60
2022/09/02 18:04:32;;;;;;;6.20;3.10;;;;;;;20.71;39.78;99254.07;238925;1190;140344;-60
2022/09/02 18:09:37;;;;;;;5.90;2.50;;;;;;;20.67;39.92;99257.58;238951;1190;138971;-60
2022/09/02 18:14:47;;;;;;;251.90;202.50;;;;;;;20.65;39.92;99260.54;238978;1190;140644;-60
2022/09/02 18:19:53;;;;;;;17.50;9.30;;;;;;;20.60;39.79;99258.79;238973;1190;140625;-59
2022/09/02 18:25:22;;;;;;;7.90;3.30;;;;;;;20.55;39.73;99261.52;238924;1190;142280;-60
2022/09/02 18:30:37;;;;;;;8.10;4.80;;;;;;;20.48;39.72;99256.18;238938;1190;140295;-58
2022/09/02 18:35:53;;;;;;;64.40;48.30;;;;;;;20.50;40.43;99263.94;238963;1190;139887;-60
2022/09/02 18:41:32;;;;;;;24.20;16.30;;;;;;;20.68;40.92;99266.81;238897;1190;140000;-59
2022/09/02 18:46:50;;;;;;;203.00;177.80;;;;;;;20.85;40.97;99270.16;238948;1190;140318;-60
2022/09/02 18:51:59;;;;;;;16.20;11.90;;;;;;;20.89;40.28;99273.38;238951;1190;140567;-60
2022/09/02 18:57:06;;;;;;;6.90;4.00;;;;;;;20.77;40.23;99267.17;238921;1190;139951;-60
2022/09/02 19:02:21;;;;;;;4.60;2.20;;;;;;;20.55;39.55;99269.98;238842;1190;139833;-59
2022/09/02 19:12:46;;;;;;;4.60;1.80;;;;;;;19.84;39.27;99272.63;238842;1190;141275;-57
2022/09/02 19:17:50;;;;;;;5.50;1.90;;;;;;;19.59;39.35;99275.13;238742;1190;140374;-58
2022/09/02 19:22:57;;;;;;;5.60;2.50;;;;;;;19.40;39.42;99275.70;238698;1192;139504;-59
2022/09/02 19:28:02;;;;;;;5.90;2.20;;;;;;;19.26;39.48;99277.05;238668;1191;140108;-59
2022/09/02 19:33:07;;;;;;;7.00;2.20;;;;;;;19.14;39.48;99276.31;238793;1190;139340;-59
2022/09/02 19:38:10;;;;;;;9.60;2.90;;;;;;;19.06;39.37;99275.13;238748;1190;140499;-59
2022/09/02 19:43:14;;;;;;;5.30;2.10;;;;;;;19.00;39.35;99280.04;238597;1192;141126;-58
2022/09/02 19:48:18;;;;;;;4.30;1.80;;;;;;;18.92;39.15;99282.75;238727;1191;140449;-59
2022/09/02 19:53:28;;;;;;;5.10;1.90;;;;;;;18.90;39.17;99286.83;238711;1190;139875;-59
2022/09/02 19:58:33;;;;;;;2.40;1.40;;;;;;;18.87;39.03;99286.94;238759;1190;140050;-58
2022/09/02 20:03:37;;;;;;;2.50;1.40;;;;;;;18.86;39.09;99287.63;238554;1191;140014;-59
2022/09/02 20:08:41;;;;;;;4.50;2.00;;;;;;;18.81;38.90;99285.25;238477;1192;139850;-57
2022/09/02 20:13:44;;;;;;;2.90;1.50;;;;;;;18.77;38.89;99287.00;238610;1190;139966;-57
2022/09/02 20:18:49;;;;;;;3.10;1.30;;;;;;;18.75;38.88;99290.06;238662;1192;141116;-56
2022/09/02 20:23:56;;;;;;;5.30;2.00;;;;;;;18.71;38.94;99289.15;238812;1190;141148;-59
2022/09/02 20:29:18;;;;;;;3.00;1.70;;;;;;;18.67;38.98;99280.80;238620;1192;139804;-59
2022/09/02 20:34:36;;;;;;;3.50;1.30;;;;;;;18.61;38.96;99279.80;238689;1190;139253;-59
2022/09/02 20:39:47;;;;;;;2.40;1.40;;;;;;;18.53;38.95;99286.46;238658;1191;140163;-58
2022/09/02 20:45:06;;;;;;;2.10;1.20;;;;;;;18.44;39.10;99288.48;238456;1192;140118;-60
2022/09/02 20:50:20;;;;;;;2.90;1.50;;;;;;;18.36;39.07;99287.31;238505;1191;141231;-59
2022/09/02 20:55:37;;;;;;;3.50;1.60;;;;;;;18.26;39.27;99286.19;238726;1191;140659;-60
2022/09/02 21:01:03;;;;;;;2.90;1.50;;;;;;;18.18;39.43;99286.70;238742;1190;141989;-60
2022/09/02 21:06:09;;;;;;;2.90;1.10;;;;;;;18.09;39.62;99287.95;238761;1190;141640;-60
2022/09/02 21:11:14;;;;;;;3.60;1.40;;;;;;;17.99;39.73;99290.41;238719;1190;140056;-61
2022/09/02 21:16:41;;;;;;;5.00;1.70;;;;;;;17.90;39.87;99291.57;238565;1192;139791;-60
2022/09/02 21:22:20;;;;;;;5.50;1.60;;;;;;;17.84;39.93;99293.02;238639;1191;139337;-59
2022/09/02 21:27:30;;;;;;;3.70;1.60;;;;;;;17.76;40.19;99296.04;237949;1192;140557;-57
2022/09/02 21:32:40;;;;;;;6.00;1.50;;;;;;;17.68;40.37;99296.19;238692;1192;139350;-58
2022/09/02 21:37:44;;;;;;;2.60;1.30;;;;;;;17.62;40.52;99299.90;238618;1192;140654;-60
2022/09/02 21:43:09;;;;;;;7.00;3.10;;;;;;;17.57;40.58;99301.30;238616;1192;139808;-60
2022/09/02 21:48:54;;;;;;;3.80;2.00;;;;;;;17.47;40.77;99304.77;238742;1190;140152;-61
2022/09/02 21:54:10;;;;;;;5.20;1.80;;;;;;;17.35;40.84;99306.20;238413;1191;140141;-60
2022/09/02 21:59:36;;;;;;;11.90;6.90;;;;;;;17.25;41.03;99307.74;238864;1191;139812;-59
2022/09/02 22:04:45;;;;;;;4.10;2.00;;;;;;;17.21;41.17;99307.39;238703;1190;139898;-59
2022/09/02 22:10:01;;;;;;;5.90;2.90;;;;;;;17.15;41.30;99308.05;238848;1190;139550;-59
2022/09/02 22:15:32;;;;;;;4.10;1.50;;;;;;;17.09;41.40;99306.10;238740;1191;139238;-59
2022/09/02 22:20:39;;;;;;;3.30;1.50;;;;;;;17.04;41.62;99305.43;238680;1192;139902;-59
2022/09/02 22:25:42;;;;;;;2.30;1.80;;;;;;;16.96;41.69;99301.66;238642;1190;139406;-59
2022/09/02 22:30:56;;;;;;;2.50;1.50;;;;;;;16.89;41.86;99301.34;238872;1190;139542;-59
2022/09/02 22:36:06;;;;;;;2.70;1.40;;;;;;;16.82;41.89;99301.20;238462;1191;139762;-59
2022/09/02 22:41:22;;;;;;;2.80;1.40;;;;;;;16.74;42.19;99295.34;238481;1192;141403;-58
2022/09/02 22:58:06;;;;;;;5.40;1.50;;;;;;;16.49;42.72;99289.42;238669;1191;139951;-60
2022/09/02 23:03:23;;;;;;;3.90;1.80;;;;;;;16.40;42.92;99288.35;238817;1192;140142;-60
2022/09/02 23:08:26;;;;;;;4.20;2.00;;;;;;;16.36;43.14;99284.95;238816;1192;142445;-59
2022/09/02 23:14:05;;;;;;;4.70;3.00;;;;;;;16.38;43.45;99280.63;238644;1191;139701;-58
2022/09/02 23:19:34;;;;;;;3.50;1.90;;;;;;;16.42;43.30;99281.20;238903;1191;140301;-58
2022/09/02 23:24:47;;;;;;;8.40;1.80;;;;;;;16.37;43.66;99279.80;238848;1192;139669;-59
2022/09/02 23:29:53;;;;;;;3.60;2.20;;;;;;;16.36;43.70;99282.44;238551;1192;139839;-58
2022/09/02 23:35:22;;;;;;;5.20;2.10;;;;;;;16.39;43.85;99287.17;238490;1192;139532;-56
2022/09/02 23:40:30;;;;;;;4.20;1.80;;;;;;;16.42;43.64;99286.04;238148;1191;140710;-58
2022/09/02 23:45:35;;;;;;;3.70;2.00;;;;;;;16.41;43.79;99282.02;238478;1191;139222;-58
2022/09/02 23:51:05;;;;;;;4.50;1.90;;;;;;;16.39;43.95;99287.23;238508;1191;140129;-56
2022/09/02 23:56:23;;;;;;;6.10;1.90;;;;;;;16.37;44.39;99288.77;238734;1192;139436;-58
